createdAt,value
2019-03-30T00:00:30.919Z,9.73
2019-03-30T00:02:59.197Z,9.17
2019-03-30T00:05:27.522Z,8.40
2019-03-30T00:07:55.809Z,9.23
2019-03-30T00:10:24.214Z,8.80
2019-03-30T00:12:52.586Z,8.50
2019-03-30T00:15:20.866Z,8.17
2019-03-30T00:17:49.148Z,8.53
2019-03-30T00:20:17.471Z,8.80
2019-03-30T00:22:45.736Z,8.60
2019-03-30T00:25:14.008Z,9.23
2019-03-30T00:27:42.276Z,8.70
2019-03-30T00:30:10.919Z,13.07
2019-03-30T00:32:39.189Z,7.90
2019-03-30T00:35:07.499Z,9.07
2019-03-30T00:37:35.776Z,9.33
2019-03-30T00:40:05.468Z,8.33
2019-03-30T00:42:33.748Z,8.47
2019-03-30T00:45:02.034Z,9.70
2019-03-30T00:47:30.296Z,8.77
2019-03-30T00:49:58.562Z,9.53
2019-03-30T00:52:27.726Z,8.70
2019-03-30T00:54:55.995Z,9.20
2019-03-30T00:57:24.257Z,9.20
2019-03-30T00:59:52.502Z,10.40
2019-03-30T01:02:20.791Z,8.57
2019-03-30T01:04:49.041Z,9.33
2019-03-30T01:07:17.355Z,8.93
2019-03-30T01:09:45.653Z,9.53
2019-03-30T01:12:13.936Z,8.90
2019-03-30T01:14:42.208Z,7.87
2019-03-30T01:17:10.558Z,8.87
2019-03-30T01:19:38.835Z,9.13
2019-03-30T01:22:07.098Z,8.80
2019-03-30T01:24:35.352Z,7.83
2019-03-30T01:27:03.776Z,8.50
2019-03-30T01:29:32.102Z,8.33
2019-03-30T01:32:00.356Z,7.77
2019-03-30T01:34:28.630Z,9.50
2019-03-30T01:36:56.888Z,9.20
2019-03-30T01:39:25.165Z,8.40
2019-03-30T01:41:53.493Z,9.83
2019-03-30T01:44:21.751Z,10.33
2019-03-30T01:46:50.019Z,9.50
2019-03-30T01:49:18.288Z,9.23
2019-03-30T01:51:46.551Z,7.93
2019-03-30T01:54:14.795Z,8.20
2019-03-30T01:56:43.057Z,9.03
2019-03-30T01:59:11.325Z,8.97
2019-03-30T02:01:39.613Z,8.63
2019-03-30T02:04:07.881Z,8.50
2019-03-30T02:06:36.169Z,8.93
2019-03-30T02:09:05.306Z,9.10
2019-03-30T02:11:33.585Z,9.47
2019-03-30T02:14:01.855Z,8.50
2019-03-30T02:16:30.136Z,10.00
2019-03-30T02:18:58.380Z,8.47
2019-03-30T02:21:26.635Z,8.50
2019-03-30T02:23:54.904Z,8.97
2019-03-30T02:26:23.157Z,8.70
2019-03-30T02:28:51.428Z,9.07
2019-03-30T02:31:19.692Z,9.67
2019-03-30T02:33:47.946Z,9.90
2019-03-30T02:36:16.202Z,9.63
2019-03-30T02:38:44.470Z,11.27
2019-03-30T02:41:12.737Z,9.33
2019-03-30T02:43:41.002Z,10.13
2019-03-30T02:46:09.259Z,7.80
2019-03-30T02:48:37.555Z,9.33
2019-03-30T02:51:05.857Z,8.10
2019-03-30T02:53:34.125Z,10.97
2019-03-30T02:56:02.413Z,9.07
2019-03-30T02:58:30.676Z,7.97
2019-03-30T03:00:58.921Z,9.27
2019-03-30T03:03:27.272Z,11.37
2019-03-30T03:05:55.530Z,9.83
2019-03-30T03:08:23.779Z,9.23
2019-03-30T03:10:52.046Z,9.33
2019-03-30T03:13:20.294Z,9.77
2019-03-30T03:15:48.553Z,9.23
2019-03-30T03:18:16.816Z,8.73
2019-03-30T03:20:45.064Z,9.57
2019-03-30T03:23:13.329Z,8.43
2019-03-30T03:25:41.629Z,9.20
2019-03-30T03:28:09.896Z,9.70
2019-03-30T03:30:38.174Z,10.70
2019-03-30T03:33:06.443Z,10.70
2019-03-30T03:35:34.701Z,9.67
2019-03-30T03:38:03.097Z,8.63
2019-03-30T03:40:31.349Z,9.10
2019-03-30T03:42:59.687Z,9.50
2019-03-30T03:45:27.932Z,9.07
2019-03-30T03:47:56.224Z,9.53
2019-03-30T03:50:35.890Z,9.27
2019-03-30T03:53:04.310Z,9.73
2019-03-30T03:55:33.797Z,9.90
2019-03-30T03:58:03.136Z,9.60
2019-03-30T04:00:31.673Z,9.60
2019-03-30T04:03:01.287Z,9.10
2019-03-30T04:05:29.609Z,9.70
2019-03-30T04:07:59.450Z,10.23
2019-03-30T04:10:30.145Z,10.77
2019-03-30T04:12:59.164Z,10.93
2019-03-30T04:15:27.480Z,9.13
2019-03-30T04:17:55.747Z,10.80
2019-03-30T04:20:24.440Z,10.43
2019-03-30T04:22:54.251Z,9.80
2019-03-30T04:25:22.815Z,9.83
2019-03-30T04:27:51.066Z,9.97
2019-03-30T04:30:19.339Z,12.53
2019-03-30T04:32:47.610Z,12.00
2019-03-30T04:35:15.887Z,10.13
2019-03-30T04:37:44.156Z,10.30
2019-03-30T04:40:12.410Z,11.13
2019-03-30T04:42:40.718Z,10.10
2019-03-30T04:45:09.055Z,10.57
2019-03-30T04:47:37.322Z,12.87
2019-03-30T04:50:06.607Z,11.53
2019-03-30T04:52:34.853Z,12.73
2019-03-30T04:55:03.985Z,10.73
2019-03-30T04:57:32.229Z,11.30
2019-03-30T05:00:00.517Z,10.47
2019-03-30T05:02:28.775Z,10.67
2019-03-30T05:04:57.052Z,11.87
2019-03-30T05:07:25.348Z,14.90
2019-03-30T05:09:53.631Z,11.80
2019-03-30T05:12:21.896Z,11.93
2019-03-30T05:14:50.213Z,11.77
2019-03-30T05:17:18.514Z,11.77
2019-03-30T05:19:46.816Z,12.53
2019-03-30T05:22:16.700Z,11.87
2019-03-30T05:24:45.128Z,11.60
2019-03-30T05:27:13.410Z,10.90
2019-03-30T05:29:41.712Z,12.80
2019-03-30T05:32:09.963Z,10.90
2019-03-30T05:34:38.224Z,12.30
2019-03-30T05:37:06.514Z,11.83
2019-03-30T05:39:34.790Z,11.20
2019-03-30T05:42:03.059Z,10.43
2019-03-30T05:44:31.318Z,11.43
2019-03-30T05:46:59.574Z,12.17
2019-03-30T05:49:27.850Z,15.63
2019-03-30T05:51:56.127Z,11.77
2019-03-30T05:54:24.404Z,11.20
2019-03-30T05:56:52.661Z,11.93
2019-03-30T05:59:20.960Z,12.80
2019-03-30T06:01:49.246Z,10.73
2019-03-30T06:04:17.517Z,12.03
2019-03-30T06:06:45.776Z,11.07
2019-03-30T06:09:14.038Z,13.50
2019-03-30T06:11:42.328Z,14.00
2019-03-30T06:14:10.584Z,12.93
2019-03-30T06:16:38.880Z,14.00
2019-03-30T06:19:07.141Z,12.50
2019-03-30T06:21:35.407Z,13.20
2019-03-30T06:24:03.783Z,14.10
2019-03-30T06:26:32.043Z,14.03
2019-03-30T06:29:00.322Z,13.43
2019-03-30T06:31:28.583Z,13.67
2019-03-30T06:33:56.843Z,14.20
2019-03-30T06:36:25.121Z,13.33
2019-03-30T06:38:53.395Z,14.83
2019-03-30T06:41:21.680Z,15.70
2019-03-30T06:43:49.957Z,16.63
2019-03-30T06:46:18.307Z,14.27
2019-03-30T06:48:46.610Z,14.40
2019-03-30T06:51:14.926Z,14.83
2019-03-30T06:53:43.201Z,15.93
2019-03-30T06:56:11.550Z,15.07
2019-03-30T06:58:39.740Z,14.40
2019-03-30T07:01:08.074Z,14.40
2019-03-30T07:03:36.643Z,15.70
2019-03-30T07:06:04.981Z,14.90
2019-03-30T07:08:33.932Z,14.07
2019-03-30T07:11:03.181Z,14.93
2019-03-30T07:13:34.072Z,15.60
2019-03-30T07:16:03.908Z,15.37
2019-03-30T07:18:32.849Z,15.33
2019-03-30T07:21:01.116Z,15.00
2019-03-30T07:23:29.396Z,15.90
2019-03-30T07:25:57.657Z,16.20
2019-03-30T07:28:25.939Z,16.20
2019-03-30T07:30:54.201Z,15.33
2019-03-30T07:33:22.555Z,16.37
2019-03-30T07:35:50.835Z,15.80
2019-03-30T07:38:19.107Z,14.80
2019-03-30T07:40:47.462Z,19.07
2019-03-30T07:43:15.794Z,16.17
2019-03-30T07:45:44.079Z,16.53
2019-03-30T07:48:12.358Z,18.07
2019-03-30T07:50:40.645Z,17.33
2019-03-30T07:53:08.913Z,15.60
2019-03-30T07:55:37.249Z,15.67
2019-03-30T07:58:05.539Z,16.30
2019-03-30T08:00:33.854Z,15.43
2019-03-30T08:03:02.134Z,17.93
2019-03-30T08:05:30.435Z,16.73
2019-03-30T08:07:58.717Z,17.83
2019-03-30T08:10:26.999Z,21.20
2019-03-30T08:12:55.264Z,17.93
2019-03-30T08:15:23.623Z,19.63
2019-03-30T08:17:51.892Z,16.90
2019-03-30T08:20:20.158Z,16.90
2019-03-30T08:22:48.431Z,17.30
2019-03-30T08:25:16.710Z,17.30
2019-03-30T08:27:45.059Z,16.50
2019-03-30T08:30:13.396Z,16.23
2019-03-30T08:32:41.670Z,17.00
2019-03-30T08:35:10.011Z,17.07
2019-03-30T08:37:38.283Z,16.73
2019-03-30T08:40:07.202Z,18.63
2019-03-30T08:42:35.578Z,17.90
2019-03-30T08:45:05.604Z,17.73
2019-03-30T08:47:33.904Z,19.60
2019-03-30T08:50:02.166Z,22.07
2019-03-30T08:52:30.453Z,16.97
2019-03-30T08:54:58.735Z,18.27
2019-03-30T08:57:27.003Z,18.67
2019-03-30T08:59:55.272Z,16.70
2019-03-30T09:02:23.579Z,18.27
2019-03-30T09:04:51.844Z,17.33
2019-03-30T09:07:20.123Z,16.27
2019-03-30T09:09:48.404Z,18.93
2019-03-30T09:12:16.666Z,17.73
2019-03-30T09:14:44.962Z,16.87
2019-03-30T09:17:13.217Z,18.07
2019-03-30T09:19:41.469Z,16.00
2019-03-30T09:22:09.782Z,18.50
2019-03-30T09:24:38.048Z,18.37
2019-03-30T09:27:06.314Z,17.40
2019-03-30T09:29:34.582Z,17.70
2019-03-30T09:32:13.547Z,17.63
2019-03-30T09:34:32.846Z,22.30
2019-03-30T09:37:01.144Z,32.63
2019-03-30T09:39:29.439Z,19.90
2019-03-30T09:41:57.731Z,16.70
2019-03-30T09:44:26.024Z,16.57
2019-03-30T09:46:54.298Z,18.60
2019-03-30T09:49:22.578Z,18.50
2019-03-30T09:51:50.872Z,16.43
2019-03-30T09:54:24.083Z,19.60
2019-03-30T09:56:49.162Z,19.40
2019-03-30T09:59:17.476Z,17.17
2019-03-30T10:01:45.750Z,17.33
2019-03-30T10:04:14.066Z,17.33
2019-03-30T10:06:42.349Z,17.30
2019-03-30T10:09:10.641Z,17.40
2019-03-30T10:11:38.925Z,18.70
2019-03-30T10:14:07.214Z,15.93
2019-03-30T10:16:40.109Z,19.87
2019-03-30T10:19:16.552Z,16.67
2019-03-30T10:21:45.402Z,18.33
2019-03-30T10:24:13.688Z,17.50
2019-03-30T10:26:42.020Z,17.27
2019-03-30T10:29:10.353Z,16.73
2019-03-30T10:31:38.693Z,16.33
2019-03-30T10:34:07.094Z,16.57
2019-03-30T10:36:35.384Z,17.00
2019-03-30T10:39:05.532Z,20.07
2019-03-30T10:41:33.875Z,15.17
2019-03-30T10:44:02.143Z,15.67
2019-03-30T10:46:30.415Z,16.70
2019-03-30T10:48:58.712Z,16.90
2019-03-30T10:51:26.994Z,16.57
2019-03-30T10:53:55.284Z,17.13
2019-03-30T10:56:23.570Z,18.00
2019-03-30T10:58:51.869Z,15.80
2019-03-30T11:01:20.217Z,14.83
2019-03-30T11:03:48.471Z,15.93
2019-03-30T11:06:16.932Z,13.27
2019-03-30T11:08:45.210Z,14.40
2019-03-30T11:11:13.509Z,15.83
2019-03-30T11:13:41.793Z,12.93
2019-03-30T11:16:10.066Z,14.60
2019-03-30T11:18:38.378Z,15.70
2019-03-30T11:21:06.637Z,14.90
2019-03-30T11:23:34.938Z,14.10
2019-03-30T11:26:03.218Z,15.80
2019-03-30T11:28:31.506Z,14.20
2019-03-30T11:30:59.861Z,13.67
2019-03-30T11:33:28.143Z,15.07
2019-03-30T11:35:56.415Z,16.03
2019-03-30T11:38:24.722Z,14.40
2019-03-30T11:40:52.998Z,16.30
2019-03-30T11:43:21.302Z,15.03
2019-03-30T11:45:49.580Z,14.37
2019-03-30T11:48:17.845Z,14.27
2019-03-30T11:50:46.130Z,14.87
2019-03-30T11:53:14.396Z,14.80
2019-03-30T11:55:42.679Z,12.60
2019-03-30T11:58:10.952Z,17.50
2019-03-30T12:00:39.288Z,14.30
2019-03-30T12:03:07.679Z,13.80
2019-03-30T12:05:35.956Z,12.37
2019-03-30T12:08:04.264Z,13.67
2019-03-30T12:10:32.625Z,15.53
2019-03-30T12:13:00.918Z,17.83
2019-03-30T12:15:29.218Z,14.13
2019-03-30T12:17:57.574Z,12.77
2019-03-30T12:20:25.888Z,13.47
2019-03-30T12:22:54.156Z,15.40
2019-03-30T12:25:34.738Z,13.03
2019-03-30T12:27:52.476Z,12.00
2019-03-30T12:30:20.811Z,13.40
2019-03-30T12:32:49.081Z,13.40
2019-03-30T12:35:17.435Z,11.77
2019-03-30T12:37:45.727Z,11.83
2019-03-30T12:40:14.130Z,14.57
2019-03-30T12:42:42.472Z,10.93
2019-03-30T12:45:12.168Z,11.00
2019-03-30T12:47:40.461Z,10.10
2019-03-30T12:50:09.093Z,10.00
2019-03-30T12:52:37.379Z,11.47
2019-03-30T12:55:05.637Z,10.67
2019-03-30T12:57:33.962Z,9.63
2019-03-30T13:00:02.246Z,9.07
2019-03-30T13:02:30.624Z,8.27
2019-03-30T13:04:58.912Z,10.07
2019-03-30T13:07:27.181Z,5.83
2019-03-30T13:09:55.462Z,7.30
2019-03-30T13:12:23.809Z,4.90
2019-03-30T13:14:52.099Z,4.30
2019-03-30T13:17:20.360Z,7.03
2019-03-30T13:19:48.628Z,5.83
2019-03-30T13:22:16.935Z,5.57
2019-03-30T13:24:45.208Z,5.83
2019-03-30T13:27:13.523Z,5.50
2019-03-30T13:29:41.786Z,5.07
2019-03-30T13:32:10.154Z,5.77
2019-03-30T13:34:38.411Z,8.67
2019-03-30T13:37:17.115Z,7.53
2019-03-30T13:39:45.831Z,8.47
2019-03-30T13:42:15.191Z,8.10
2019-03-30T13:44:43.469Z,8.40
2019-03-30T13:47:11.836Z,7.67
2019-03-30T13:49:40.110Z,8.10
2019-03-30T13:52:08.392Z,7.67
2019-03-30T13:54:38.747Z,6.80
2019-03-30T13:57:06.659Z,6.93
2019-03-30T13:59:34.930Z,7.40
2019-03-30T14:02:03.222Z,6.57
2019-03-30T14:04:31.491Z,7.57
2019-03-30T14:06:59.855Z,6.60
2019-03-30T14:09:28.128Z,7.10
2019-03-30T14:11:56.414Z,6.50
2019-03-30T14:14:24.678Z,6.60
2019-03-30T14:16:52.947Z,6.93
2019-03-30T14:19:21.242Z,7.23
2019-03-30T14:21:49.507Z,6.73
2019-03-30T14:24:17.773Z,6.03
2019-03-30T14:26:46.050Z,5.93
2019-03-30T14:29:14.368Z,6.40
2019-03-30T14:31:42.632Z,5.80
2019-03-30T14:34:10.892Z,5.90
2019-03-30T14:36:39.152Z,5.90
2019-03-30T14:39:07.965Z,6.03
2019-03-30T14:41:36.594Z,5.70
2019-03-30T14:44:04.870Z,5.93
2019-03-30T14:46:33.148Z,6.70
2019-03-30T14:49:01.424Z,6.93
2019-03-30T14:51:29.703Z,7.20
2019-03-30T14:53:57.975Z,6.77
2019-03-30T14:56:26.256Z,7.47
2019-03-30T14:58:54.614Z,6.57
2019-03-30T15:01:22.875Z,6.00
2019-03-30T15:03:51.140Z,7.90
2019-03-30T15:06:19.422Z,5.87
2019-03-30T15:08:47.682Z,4.87
2019-03-30T15:11:15.965Z,6.57
2019-03-30T15:13:44.321Z,5.37
2019-03-30T15:16:20.156Z,5.87
2019-03-30T15:18:48.408Z,5.10
2019-03-30T15:21:16.769Z,7.17
2019-03-30T15:23:45.047Z,5.20
2019-03-30T15:26:13.298Z,5.90
2019-03-30T15:28:42.858Z,6.27
2019-03-30T15:31:11.329Z,6.13
2019-03-30T15:33:39.626Z,22.10
2019-03-30T15:36:07.887Z,5.13
2019-03-30T15:38:36.169Z,6.67
2019-03-30T15:41:04.893Z,7.60
2019-03-30T15:43:38.512Z,6.60
2019-03-30T15:46:03.269Z,5.90
2019-03-30T15:48:31.544Z,6.60
2019-03-30T15:50:59.816Z,5.93
2019-03-30T15:53:28.106Z,5.77
2019-03-30T15:55:56.402Z,6.17
2019-03-30T15:58:24.762Z,5.23
2019-03-30T16:00:56.946Z,5.63
2019-03-30T16:03:25.395Z,5.07
2019-03-30T16:05:53.723Z,5.43
2019-03-30T16:08:21.995Z,5.80
2019-03-30T16:10:52.319Z,6.00
2019-03-30T16:13:20.410Z,5.70
2019-03-30T16:15:48.685Z,5.80
2019-03-30T16:18:16.978Z,6.97
2019-03-30T16:20:45.265Z,6.70
2019-03-30T16:23:13.530Z,4.87
2019-03-30T16:25:41.908Z,6.63
2019-03-30T16:28:10.288Z,5.70
2019-03-30T16:30:38.589Z,5.30
2019-03-30T16:33:06.945Z,5.30
2019-03-30T16:35:35.221Z,5.70
2019-03-30T16:38:03.484Z,5.73
2019-03-30T16:40:31.754Z,6.00
2019-03-30T16:43:00.030Z,7.80
2019-03-30T16:45:28.334Z,5.73
2019-03-30T16:47:56.638Z,5.43
2019-03-30T16:50:24.934Z,5.23
2019-03-30T16:52:53.189Z,6.10
2019-03-30T16:55:21.503Z,7.20
2019-03-30T16:57:49.766Z,6.30
2019-03-30T17:00:18.729Z,6.70
2019-03-30T17:02:46.998Z,6.60
2019-03-30T17:05:15.329Z,5.83
2019-03-30T17:07:43.592Z,6.90
2019-03-30T17:10:12.131Z,5.70
2019-03-30T17:12:40.533Z,4.87
2019-03-30T17:15:09.171Z,5.47
2019-03-30T17:17:37.471Z,6.23
2019-03-30T17:20:08.087Z,5.10
2019-03-30T17:22:36.369Z,5.63
2019-03-30T17:25:06.286Z,5.73
2019-03-30T17:27:35.107Z,6.77
2019-03-30T17:30:04.373Z,5.30
2019-03-30T17:32:32.638Z,5.50
2019-03-30T17:35:00.921Z,5.77
2019-03-30T17:37:29.239Z,5.70
2019-03-30T17:39:57.506Z,5.67
2019-03-30T17:42:25.838Z,5.43
2019-03-30T17:44:54.149Z,10.10
2019-03-30T17:47:22.405Z,8.20
2019-03-30T17:49:50.708Z,8.00
2019-03-30T17:52:19.004Z,8.03
2019-03-30T17:54:47.253Z,8.40
2019-03-30T17:57:17.506Z,7.67
2019-03-30T17:59:45.533Z,8.00
2019-03-30T18:02:13.874Z,8.47
2019-03-30T18:04:42.147Z,6.77
2019-03-30T18:07:13.523Z,8.13
2019-03-30T18:09:40.436Z,7.70
2019-03-30T18:12:08.699Z,6.27
2019-03-30T18:14:36.974Z,9.57
2019-03-30T18:17:05.342Z,9.27
2019-03-30T18:19:33.602Z,8.53
2019-03-30T18:22:01.888Z,8.90
2019-03-30T18:24:30.318Z,9.63
2019-03-30T18:26:58.603Z,11.17
2019-03-30T18:29:26.892Z,13.77
2019-03-30T18:31:55.184Z,10.73
2019-03-30T18:34:23.468Z,11.60
2019-03-30T18:36:51.817Z,9.20
2019-03-30T18:39:20.135Z,10.60
2019-03-30T18:41:48.415Z,8.13
2019-03-30T18:44:17.276Z,10.17
2019-03-30T18:46:45.614Z,12.40
2019-03-30T18:49:13.901Z,11.07
2019-03-30T18:51:42.942Z,10.27
2019-03-30T18:54:16.574Z,10.40
2019-03-30T18:56:44.833Z,18.97
2019-03-30T18:59:13.120Z,11.10
2019-03-30T19:01:41.394Z,10.70
2019-03-30T19:04:09.674Z,12.80
2019-03-30T19:06:37.943Z,16.77
2019-03-30T19:09:07.239Z,14.53
2019-03-30T19:11:35.921Z,15.80
2019-03-30T19:14:04.327Z,9.90
2019-03-30T19:16:32.585Z,14.90
2019-03-30T19:19:00.862Z,11.47
2019-03-30T19:21:29.156Z,11.13
2019-03-30T19:23:57.420Z,12.03
2019-03-30T19:26:25.714Z,10.77
2019-03-30T19:28:56.529Z,10.40
2019-03-30T19:31:23.979Z,9.67
2019-03-30T19:33:52.273Z,10.70
2019-03-30T19:36:20.522Z,9.70
2019-03-30T19:38:48.821Z,9.17
2019-03-30T19:41:17.090Z,9.23
2019-03-30T19:43:45.376Z,9.23
2019-03-30T19:46:13.650Z,9.60
2019-03-30T19:48:41.937Z,10.57
2019-03-30T19:51:10.236Z,10.37
2019-03-30T19:53:38.615Z,10.90
2019-03-30T19:56:06.999Z,8.97
2019-03-30T19:58:35.244Z,9.93
2019-03-30T20:01:03.510Z,9.67
2019-03-30T20:03:31.775Z,9.27
2019-03-30T20:06:00.071Z,8.63
2019-03-30T20:08:28.332Z,7.97
2019-03-30T20:10:56.656Z,11.00
2019-03-30T20:13:24.940Z,8.33
2019-03-30T20:15:53.220Z,8.80
2019-03-30T20:18:21.723Z,8.07
2019-03-30T20:20:49.993Z,8.00
2019-03-30T20:23:18.363Z,9.27
2019-03-30T20:25:46.638Z,8.60
2019-03-30T20:28:14.906Z,8.20
2019-03-30T20:30:43.194Z,7.30
2019-03-30T20:33:11.566Z,7.27
2019-03-30T20:35:39.901Z,7.73
2019-03-30T20:38:09.830Z,8.00
2019-03-30T20:40:38.177Z,7.90
2019-03-30T20:43:06.445Z,6.90
2019-03-30T20:45:34.921Z,8.60
2019-03-30T20:48:03.209Z,8.27
2019-03-30T20:50:31.587Z,8.63
2019-03-30T20:52:59.921Z,8.43
2019-03-30T20:55:28.200Z,10.13
2019-03-30T20:57:56.495Z,7.17
2019-03-30T21:00:24.824Z,9.67
2019-03-30T21:02:53.121Z,7.30
2019-03-30T21:05:21.393Z,6.77
2019-03-30T21:07:49.696Z,7.10
2019-03-30T21:10:18.040Z,7.37
2019-03-30T21:12:46.308Z,6.73
2019-03-30T21:15:16.482Z,8.33
2019-03-30T21:17:44.772Z,6.87
2019-03-30T21:20:13.927Z,7.77
2019-03-30T21:22:42.214Z,8.33
2019-03-30T21:25:11.240Z,7.50
2019-03-30T21:27:39.517Z,6.90
2019-03-30T21:30:09.355Z,7.60
2019-03-30T21:32:37.714Z,7.83
2019-03-30T21:35:07.487Z,8.13
2019-03-30T21:37:35.813Z,7.53
2019-03-30T21:40:05.738Z,8.27
2019-03-30T21:42:34.018Z,8.43
2019-03-30T21:45:02.277Z,8.47
2019-03-30T21:47:30.557Z,8.43
2019-03-30T21:49:58.883Z,8.63
2019-03-30T21:52:27.175Z,8.07
2019-03-30T21:54:57.961Z,8.57
2019-03-30T21:57:27.997Z,8.87
2019-03-30T22:00:08.997Z,9.67
2019-03-30T22:02:26.279Z,8.17
2019-03-30T22:04:54.586Z,8.77
2019-03-30T22:07:22.912Z,8.83
2019-03-30T22:09:51.236Z,7.70
2019-03-30T22:12:19.529Z,22.23
2019-03-30T22:14:47.812Z,10.70
2019-03-30T22:17:16.097Z,8.50
2019-03-30T22:19:44.365Z,9.47
2019-03-30T22:22:12.649Z,8.40
2019-03-30T22:24:40.941Z,7.60
2019-03-30T22:27:09.217Z,8.70
2019-03-30T22:29:37.498Z,10.50
2019-03-30T22:32:05.806Z,10.67
2019-03-30T22:34:34.068Z,10.40
2019-03-30T22:37:02.331Z,9.77
2019-03-30T22:39:30.586Z,9.53
2019-03-30T22:41:58.869Z,8.33
2019-03-30T22:44:27.133Z,8.30
2019-03-30T22:46:55.403Z,9.33
2019-03-30T22:49:23.682Z,10.40
2019-03-30T22:51:51.956Z,8.00
2019-03-30T22:54:20.229Z,8.97
2019-03-30T22:56:48.495Z,7.87
2019-03-30T22:59:16.761Z,7.83
2019-03-30T23:01:45.012Z,7.70
2019-03-30T23:04:13.273Z,8.50
2019-03-30T23:06:41.543Z,7.73
2019-03-30T23:09:11.570Z,8.67
2019-03-30T23:11:39.795Z,9.00
2019-03-30T23:14:08.049Z,7.63
2019-03-30T23:16:36.324Z,10.30
2019-03-30T23:19:04.663Z,8.23
2019-03-30T23:21:32.927Z,7.77
2019-03-30T23:24:01.177Z,7.57
2019-03-30T23:26:29.443Z,8.30
2019-03-30T23:28:59.445Z,7.40
2019-03-30T23:31:27.691Z,7.80
2019-03-30T23:33:55.986Z,7.30
2019-03-30T23:36:24.234Z,7.20
2019-03-30T23:38:52.506Z,6.70
2019-03-30T23:41:20.778Z,7.23
2019-03-30T23:43:49.026Z,7.13
2019-03-30T23:46:17.292Z,6.87
2019-03-30T23:48:45.569Z,7.30
2019-03-30T23:51:13.819Z,7.90
2019-03-30T23:53:42.093Z,9.67
2019-03-30T23:56:21.566Z,7.67
2019-03-30T23:58:50.106Z,6.97
